Time;durP1;ratioP1;P1;durP2;ratioP2;P2;SDS_P1;SDS_P2;PMS_P1;PMS_P2;Temp;Humidity;BMP_temperature;BMP_pressure;BME280_temperature;BME280_humidity;BME280_pressure;Samples;Min_cycle;Max_cycle;Signal;HPM_P1;HPM_P2
2023/04/15 00:01:54;;;;;;;66.78;9.70;;;;;;;;;;5073096;28;20209;-68
2023/04/15 00:04:23;;;;;;;66.60;8.32;;;;;;;;;;5073198;28;20212;-68
2023/04/15 00:06:53;;;;;;;64.57;8.98;;;;;;;;;;5072892;28;20670;-68
2023/04/15 00:09:20;;;;;;;68.10;8.30;;;;;;;;;;5072472;28;20308;-68
2023/04/15 00:11:47;;;;;;;65.60;9.20;;;;;;;;;;5072885;28;20209;-68
2023/04/15 00:14:15;;;;;;;67.18;9.23;;;;;;;;;;5073038;28;20205;-68
2023/04/15 00:16:42;;;;;;;70.07;8.45;;;;;;;;;;5072888;28;20222;-68
2023/04/15 00:19:10;;;;;;;65.70;9.23;;;;;;;;;;5072461;28;20229;-68
2023/04/15 00:21:38;;;;;;;68.15;8.23;;;;;;;;;;5072604;28;20677;-68
2023/04/15 00:24:05;;;;;;;71.47;9.40;;;;;;;;;;5072724;28;20217;-68
2023/04/15 00:26:32;;;;;;;66.10;8.30;;;;;;;;;;5072829;28;20207;-68
2023/04/15 00:29:00;;;;;;;68.15;9.02;;;;;;;;;;5072108;28;20231;-68
2023/04/15 00:31:27;;;;;;;67.90;9.45;;;;;;;;;;5072633;28;20205;-68
2023/04/15 00:33:54;;;;;;;68.63;9.05;;;;;;;;;;5072613;28;20588;-68
2023/04/15 00:36:22;;;;;;;64.10;8.43;;;;;;;;;;5072294;28;20236;-68
2023/04/15 00:38:50;;;;;;;63.42;8.30;;;;;;;;;;5071823;28;20225;-66
2023/04/15 00:41:18;;;;;;;65.32;9.07;;;;;;;;;;5072658;28;20201;-67
2023/04/15 00:43:45;;;;;;;68.68;9.45;;;;;;;;;;5072193;28;20201;-68
2023/04/15 00:46:13;;;;;;;64.15;8.27;;;;;;;;;;5072488;28;20208;-67
2023/04/15 00:48:41;;;;;;;69.57;9.45;;;;;;;;;;5071779;28;20262;-68
2023/04/15 00:51:08;;;;;;;68.38;8.77;;;;;;;;;;5072036;28;20700;-67
2023/04/15 00:53:35;;;;;;;66.10;9.65;;;;;;;;;;5072531;28;20212;-68
2023/04/15 00:56:04;;;;;;;63.45;8.20;;;;;;;;;;5072332;28;20205;-67
2023/04/15 00:58:31;;;;;;;65.85;8.18;;;;;;;;;;5071642;28;20728;-68
2023/04/15 01:00:58;;;;;;;67.82;8.23;;;;;;;;;;5072082;28;20205;-67
2023/04/15 01:03:25;;;;;;;67.03;8.25;;;;;;;;;;5071908;28;20201;-68
2023/04/15 01:05:57;;;;;;;66.85;8.60;;;;;;;;;;5071838;28;20212;-67
2023/04/15 01:08:24;;;;;;;63.83;8.85;;;;;;;;;;5071468;28;20249;-67
2023/04/15 01:10:51;;;;;;;65.45;9.13;;;;;;;;;;5071736;28;20204;-68
2023/04/15 01:13:21;;;;;;;64.57;7.63;;;;;;;;;;5072165;28;20216;-67
2023/04/15 01:15:48;;;;;;;62.00;6.93;;;;;;;;;;5071902;28;20201;-67
2023/04/15 01:18:15;;;;;;;64.30;8.70;;;;;;;;;;5071575;28;20232;-68
2023/04/15 01:20:42;;;;;;;66.72;9.30;;;;;;;;;;5071625;28;20263;-67
2023/04/15 01:23:10;;;;;;;63.60;7.53;;;;;;;;;;5071804;28;20307;-66
2023/04/15 01:25:38;;;;;;;65.70;8.45;;;;;;;;;;5071946;28;20217;-67
2023/04/15 01:28:05;;;;;;;71.15;9.55;;;;;;;;;;5071637;28;20223;-68
2023/04/15 01:30:34;;;;;;;70.03;9.40;;;;;;;;;;5071440;28;20205;-67
2023/04/15 01:33:01;;;;;;;68.07;8.77;;;;;;;;;;5071837;28;20209;-67
2023/04/15 01:35:29;;;;;;;64.38;8.32;;;;;;;;;;5071868;28;20209;-67
2023/04/15 01:38:00;;;;;;;63.80;7.65;;;;;;;;;;5071558;28;20224;-67
2023/04/15 01:40:27;;;;;;;63.50;8.18;;;;;;;;;;5071606;28;20209;-67
2023/04/15 01:42:55;;;;;;;65.55;8.63;;;;;;;;;;5071863;28;20205;-67
2023/04/15 01:45:22;;;;;;;67.05;9.20;;;;;;;;;;5071603;28;20200;-68
2023/04/15 01:47:49;;;;;;;66.72;9.10;;;;;;;;;;5071709;28;20201;-67
2023/04/15 01:50:16;;;;;;;62.38;7.55;;;;;;;;;;5071368;28;20201;-67
2023/04/15 01:52:44;;;;;;;64.88;9.77;;;;;;;;;;5071432;28;20209;-67
2023/04/15 01:55:11;;;;;;;63.58;8.15;;;;;;;;;;5070119;28;20205;-68
2023/04/15 01:57:38;;;;;;;64.78;8.48;;;;;;;;;;5071572;28;20310;-67
2023/04/15 02:00:07;;;;;;;67.03;8.88;;;;;;;;;;5071164;28;20600;-67
2023/04/15 02:02:34;;;;;;;64.68;8.00;;;;;;;;;;5071548;28;20305;-68
2023/04/15 02:05:03;;;;;;;64.97;8.35;;;;;;;;;;5071562;28;20213;-67
2023/04/15 02:07:31;;;;;;;64.07;8.00;;;;;;;;;;5071306;28;20307;-67
2023/04/15 02:09:58;;;;;;;68.88;10.48;;;;;;;;;;5071199;28;20306;-67
2023/04/15 02:12:26;;;;;;;71.07;10.18;;;;;;;;;;5071459;28;20586;-67
2023/04/15 02:14:53;;;;;;;64.80;8.48;;;;;;;;;;5071426;28;20215;-68
2023/04/15 02:17:21;;;;;;;68.05;8.52;;;;;;;;;;5071400;28;20225;-67
2023/04/15 02:19:48;;;;;;;72.13;12.50;;;;;;;;;;5071072;28;20228;-67
2023/04/15 02:22:17;;;;;;;68.95;10.40;;;;;;;;;;5073666;28;20205;-67
2023/04/15 02:24:44;;;;;;;67.25;10.10;;;;;;;;;;5075052;28;20216;-68
2023/04/15 02:27:11;;;;;;;64.28;8.65;;;;;;;;;;5075173;28;20207;-68
2023/04/15 02:29:39;;;;;;;64.18;8.43;;;;;;;;;;5074446;28;20229;-67
2023/04/15 02:47:36;;;;;;;65.65;8.18;;;;;;;;;;5074597;28;20188;-67
2023/04/15 02:50:04;;;;;;;64.78;9.43;;;;;;;;;;5072651;28;20229;-67
2023/04/15 02:52:31;;;;;;;64.10;8.80;;;;;;;;;;5074638;28;20208;-68
2023/04/15 02:54:59;;;;;;;66.82;8.45;;;;;;;;;;5074514;28;20581;-67
2023/04/15 02:57:27;;;;;;;64.50;8.20;;;;;;;;;;5074277;28;20225;-67
2023/04/15 02:59:54;;;;;;;69.15;9.68;;;;;;;;;;5073914;28;20279;-67
2023/04/15 03:02:21;;;;;;;66.88;9.20;;;;;;;;;;5074261;28;20215;-68
2023/04/15 03:04:50;;;;;;;66.60;9.48;;;;;;;;;;5074545;28;20205;-67
2023/04/15 03:07:18;;;;;;;65.53;8.63;;;;;;;;;;5074317;28;20573;-68
2023/04/15 03:09:46;;;;;;;65.20;7.80;;;;;;;;;;5073912;28;20229;-68
2023/04/15 03:12:13;;;;;;;67.05;9.15;;;;;;;;;;5074219;28;20205;-67
2023/04/15 03:14:40;;;;;;;69.07;9.98;;;;;;;;;;5074449;28;20228;-68
2023/04/15 03:17:08;;;;;;;63.53;9.38;;;;;;;;;;5073915;28;20221;-67
2023/04/15 03:19:35;;;;;;;65.88;8.98;;;;;;;;;;5073635;28;20246;-67
2023/04/15 03:22:03;;;;;;;64.13;8.63;;;;;;;;;;5074036;28;20205;-67
2023/04/15 03:24:30;;;;;;;65.72;8.82;;;;;;;;;;5073838;28;20208;-67
2023/04/15 03:26:57;;;;;;;64.50;8.07;;;;;;;;;;5073964;28;20300;-67
2023/04/15 03:29:25;;;;;;;66.53;9.75;;;;;;;;;;5073278;28;20229;-67
2023/04/15 03:31:53;;;;;;;70.97;11.57;;;;;;;;;;5073540;28;20212;-67
2023/04/15 03:34:20;;;;;;;69.10;11.40;;;;;;;;;;5073904;28;20228;-68
2023/04/15 03:36:47;;;;;;;72.80;12.00;;;;;;;;;;5073786;28;20209;-68
2023/04/15 03:39:16;;;;;;;66.97;10.75;;;;;;;;;;5073085;28;20267;-66
2023/04/15 03:41:43;;;;;;;67.07;10.05;;;;;;;;;;5073622;28;20223;-67
2023/04/15 03:44:10;;;;;;;67.75;9.70;;;;;;;;;;5073462;28;20212;-67
2023/04/15 03:46:37;;;;;;;69.53;9.90;;;;;;;;;;5073625;28;20202;-67
2023/04/15 03:49:04;;;;;;;64.07;8.82;;;;;;;;;;5073120;28;20243;-67
2023/04/15 03:51:31;;;;;;;67.65;10.20;;;;;;;;;;5073265;28;20201;-68
2023/04/15 03:53:58;;;;;;;70.00;11.00;;;;;;;;;;5073772;28;20204;-67
2023/04/15 03:56:27;;;;;;;72.40;10.50;;;;;;;;;;5073175;28;20211;-68
2023/04/15 03:58:54;;;;;;;71.60;10.00;;;;;;;;;;5072935;28;20244;-67
2023/04/15 04:01:21;;;;;;;71.10;10.80;;;;;;;;;;5073317;28;20205;-67
2023/04/15 04:03:48;;;;;;;67.22;10.48;;;;;;;;;;5073285;28;20591;-67
2023/04/15 04:06:15;;;;;;;68.50;10.63;;;;;;;;;;5073113;28;20219;-67
2023/04/15 04:08:43;;;;;;;65.72;10.18;;;;;;;;;;5072610;28;20232;-67
2023/04/15 04:11:10;;;;;;;67.57;10.90;;;;;;;;;;5073087;28;20202;-68
2023/04/15 04:13:39;;;;;;;66.82;9.52;;;;;;;;;;5073118;28;20205;-67
2023/04/15 04:16:06;;;;;;;66.40;9.05;;;;;;;;;;5072898;28;20203;-67
2023/04/15 04:18:33;;;;;;;65.13;9.52;;;;;;;;;;5072435;28;20316;-69
2023/04/15 04:21:01;;;;;;;67.60;10.20;;;;;;;;;;5072987;28;20586;-67
2023/04/15 04:23:28;;;;;;;66.03;9.88;;;;;;;;;;5072461;28;20213;-67
2023/04/15 04:25:55;;;;;;;66.85;8.38;;;;;;;;;;5072887;28;20205;-68
2023/04/15 04:28:22;;;;;;;66.95;8.77;;;;;;;;;;5072472;28;20648;-67
2023/04/15 04:30:50;;;;;;;66.45;8.77;;;;;;;;;;5072317;28;20251;-67
2023/04/15 04:33:18;;;;;;;69.07;8.70;;;;;;;;;;5072453;28;20205;-67
2023/04/15 04:35:45;;;;;;;64.97;7.70;;;;;;;;;;5072449;28;20205;-67
2023/04/15 04:38:12;;;;;;;62.95;8.43;;;;;;;;;;5072060;28;20228;-67
2023/04/15 04:40:40;;;;;;;64.15;8.35;;;;;;;;;;5072359;28;20557;-67
2023/04/15 04:43:07;;;;;;;63.08;8.23;;;;;;;;;;5072202;28;20654;-69
2023/04/15 04:45:34;;;;;;;65.18;8.65;;;;;;;;;;5072006;28;20212;-66
2023/04/15 04:48:05;;;;;;;66.65;9.07;;;;;;;;;;5071937;28;20225;-68
2023/04/15 04:50:32;;;;;;;65.90;9.65;;;;;;;;;;5072052;28;20205;-67
2023/04/15 04:53:00;;;;;;;65.07;8.40;;;;;;;;;;5072045;28;20213;-67
2023/04/15 04:55:27;;;;;;;65.00;8.90;;;;;;;;;;5072194;28;20201;-67
2023/04/15 04:57:54;;;;;;;63.72;7.50;;;;;;;;;;5072291;28;20225;-67
2023/04/15 05:00:21;;;;;;;65.43;8.32;;;;;;;;;;5071962;28;20212;-68
2023/04/15 05:02:48;;;;;;;66.03;8.95;;;;;;;;;;5072106;28;20227;-67
2023/04/15 05:05:17;;;;;;;63.90;8.60;;;;;;;;;;5071737;28;20205;-67
2023/04/15 05:07:44;;;;;;;64.32;8.02;;;;;;;;;;5071975;28;20207;-67
2023/04/15 05:10:11;;;;;;;64.05;8.45;;;;;;;;;;5071887;28;20205;-67
2023/04/15 05:12:39;;;;;;;69.20;7.90;;;;;;;;;;5072253;28;20215;-67
2023/04/15 05:15:06;;;;;;;65.55;8.80;;;;;;;;;;5071752;28;20693;-67
2023/04/15 05:17:34;;;;;;;64.18;8.15;;;;;;;;;;5071758;28;20209;-67
2023/04/15 05:20:01;;;;;;;65.07;7.65;;;;;;;;;;5071355;28;20278;-67
2023/04/15 05:22:30;;;;;;;62.90;8.02;;;;;;;;;;5072028;28;20205;-67
2023/04/15 05:24:57;;;;;;;64.25;8.75;;;;;;;;;;5071535;28;20219;-67
2023/04/15 05:27:24;;;;;;;63.70;8.05;;;;;;;;;;5071810;28;20209;-67
2023/04/15 05:29:51;;;;;;;64.80;7.90;;;;;;;;;;5071389;28;20217;-67
2023/04/15 05:32:18;;;;;;;64.55;8.10;;;;;;;;;;5071819;28;20205;-68
2023/04/15 05:34:45;;;;;;;67.97;9.05;;;;;;;;;;5071460;28;20201;-67
2023/04/15 05:37:13;;;;;;;65.15;8.50;;;;;;;;;;5071796;28;20344;-67
2023/04/15 05:39:42;;;;;;;64.47;8.75;;;;;;;;;;5071333;28;20229;-67
2023/04/15 05:42:09;;;;;;;64.50;7.85;;;;;;;;;;5071677;28;20702;-67
2023/04/15 05:44:36;;;;;;;68.57;9.00;;;;;;;;;;5071520;28;20290;-67
2023/04/15 05:47:04;;;;;;;66.75;8.25;;;;;;;;;;5071472;28;20672;-67
2023/04/15 05:49:31;;;;;;;65.38;8.80;;;;;;;;;;5071365;28;20600;-67
2023/04/15 05:51:59;;;;;;;74.13;9.45;;;;;;;;;;5071646;28;20205;-67
2023/04/15 05:54:26;;;;;;;66.65;9.10;;;;;;;;;;5071773;28;20295;-67
2023/04/15 05:56:55;;;;;;;63.25;9.63;;;;;;;;;;5075569;28;20239;-67
2023/04/15 05:59:22;;;;;;;64.05;9.25;;;;;;;;;;5075039;28;20229;-66
2023/04/15 06:01:50;;;;;;;71.10;9.38;;;;;;;;;;5075348;28;20201;-67
2023/04/15 06:04:17;;;;;;;65.10;9.60;;;;;;;;;;5075581;28;20240;-66
2023/04/15 06:06:45;;;;;;;71.03;9.10;;;;;;;;;;5075534;28;20577;-66
2023/04/15 06:09:12;;;;;;;67.65;10.25;;;;;;;;;;5074953;28;20311;-67
2023/04/15 06:11:40;;;;;;;64.47;8.35;;;;;;;;;;5075343;28;20460;-66
2023/04/15 06:14:08;;;;;;;66.32;9.27;;;;;;;;;;5075062;28;20241;-66
2023/04/15 06:16:36;;;;;;;67.47;8.88;;;;;;;;;;5075489;28;20205;-67
2023/04/15 06:19:03;;;;;;;65.25;9.63;;;;;;;;;;5074764;28;20224;-67
2023/04/15 06:21:31;;;;;;;64.97;9.80;;;;;;;;;;5075300;28;20205;-67
2023/04/15 06:24:00;;;;;;;65.85;9.40;;;;;;;;;;5074974;28;20209;-67
2023/04/15 06:26:27;;;;;;;63.78;8.85;;;;;;;;;;5074933;28;20212;-69
2023/04/15 06:28:54;;;;;;;62.65;7.80;;;;;;;;;;5074423;28;20229;-69
2023/04/15 06:31:23;;;;;;;69.50;7.72;;;;;;;;;;5074980;28;20291;-69
2023/04/15 06:33:51;;;;;;;69.50;8.77;;;;;;;;;;5074999;28;20247;-69
2023/04/15 06:36:18;;;;;;;62.80;7.68;;;;;;;;;;5074848;28;20205;-69
2023/04/15 06:38:45;;;;;;;62.97;7.97;;;;;;;;;;5074333;28;20603;-69
2023/04/15 06:41:12;;;;;;;65.97;8.02;;;;;;;;;;5074383;28;20299;-70
2023/04/15 06:43:40;;;;;;;64.28;7.80;;;;;;;;;;5074643;28;20208;-68
2023/04/15 06:46:07;;;;;;;62.55;7.38;;;;;;;;;;5074636;28;20209;-69
2023/04/15 06:48:36;;;;;;;61.25;6.78;;;;;;;;;;5074189;28;20221;-69
2023/04/15 06:51:03;;;;;;;62.55;7.43;;;;;;;;;;5074650;28;20209;-69
2023/04/15 06:53:30;;;;;;;61.90;6.85;;;;;;;;;;5074712;28;20494;-69
2023/04/15 06:55:57;;;;;;;69.32;7.55;;;;;;;;;;5074678;28;20215;-69
2023/04/15 06:58:24;;;;;;;64.00;7.30;;;;;;;;;;5073016;28;20229;-68
2023/04/15 07:00:51;;;;;;;60.53;6.10;;;;;;;;;;5073997;28;20677;-69
2023/04/15 07:03:18;;;;;;;63.83;6.88;;;;;;;;;;5074407;28;20212;-70
2023/04/15 07:05:47;;;;;;;61.55;6.72;;;;;;;;;;5074407;28;20209;-69
2023/04/15 07:08:14;;;;;;;62.65;6.93;;;;;;;;;;5073446;28;20237;-69
2023/04/15 07:10:41;;;;;;;63.08;6.95;;;;;;;;;;5074251;28;20205;-69
2023/04/15 07:13:09;;;;;;;61.17;7.28;;;;;;;;;;5074440;28;20211;-70
2023/04/15 07:15:36;;;;;;;67.13;6.05;;;;;;;;;;5074285;28;20208;-69
2023/04/15 07:18:03;;;;;;;63.25;6.85;;;;;;;;;;5073936;28;20704;-70
2023/04/15 07:20:30;;;;;;;62.90;7.32;;;;;;;;;;5073876;28;20208;-68
2023/04/15 07:22:59;;;;;;;60.85;6.18;;;;;;;;;;5073764;28;20274;-69
2023/04/15 07:25:26;;;;;;;63.55;7.05;;;;;;;;;;5073876;28;20212;-69
2023/04/15 07:27:53;;;;;;;62.22;6.45;;;;;;;;;;5073945;28;20256;-70
2023/04/15 07:30:20;;;;;;;64.57;6.35;;;;;;;;;;5073488;28;20207;-69
2023/04/15 07:32:47;;;;;;;61.97;6.10;;;;;;;;;;5073998;28;20205;-70
2023/04/15 07:35:14;;;;;;;63.78;6.47;;;;;;;;;;5073646;28;20205;-69
2023/04/15 07:37:43;;;;;;;65.37;8.07;;;;;;;;;;5073885;28;20209;-69
2023/04/15 07:40:13;;;;;;;62.80;6.70;;;;;;;;;;5073455;28;20479;-67
2023/04/15 07:42:41;;;;;;;62.40;6.20;;;;;;;;;;5073737;28;20251;-66
2023/04/15 07:45:08;;;;;;;62.40;6.30;;;;;;;;;;5073427;28;20509;-67
2023/04/15 07:47:36;;;;;;;63.43;6.63;;;;;;;;;;5073471;28;20455;-68
2023/04/15 07:50:03;;;;;;;66.77;7.47;;;;;;;;;;5072941;28;20811;-67
2023/04/15 07:52:30;;;;;;;63.47;6.67;;;;;;;;;;5073345;28;20456;-68
2023/04/15 07:54:57;;;;;;;65.10;6.87;;;;;;;;;;5073461;28;20467;-67
2023/04/15 07:57:25;;;;;;;70.00;6.37;;;;;;;;;;5073341;28;20525;-68
2023/04/15 07:59:52;;;;;;;64.50;6.70;;;;;;;;;;5072918;28;20487;-67
2023/04/15 08:02:20;;;;;;;89.90;9.40;;;;;;;;;;5073090;28;20448;-67
2023/04/15 08:04:47;;;;;;;65.83;6.53;;;;;;;;;;5073322;28;20447;-68
2023/04/15 08:07:14;;;;;;;63.60;6.93;;;;;;;;;;5073201;28;20447;-69
2023/04/15 08:09:42;;;;;;;64.27;6.83;;;;;;;;;;5072642;28;21058;-67
2023/04/15 08:12:12;;;;;;;68.40;6.80;;;;;;;;;;5073022;28;20454;-67
2023/04/15 08:14:40;;;;;;;63.27;7.10;;;;;;;;;;5072942;28;20447;-68
2023/04/15 08:17:08;;;;;;;66.67;6.47;;;;;;;;;;5072988;28;20455;-67
2023/04/15 08:19:35;;;;;;;64.50;6.40;;;;;;;;;;5071569;28;20580;-67
2023/04/15 08:22:02;;;;;;;60.83;5.93;;;;;;;;;;5072955;28;20447;-67
2023/04/15 08:24:30;;;;;;;62.17;6.70;;;;;;;;;;5072720;28;20852;-67
2023/04/15 08:26:58;;;;;;;62.80;6.47;;;;;;;;;;5072629;28;20481;-68
2023/04/15 08:29:26;;;;;;;63.97;7.17;;;;;;;;;;5072068;28;20464;-67
2023/04/15 08:31:54;;;;;;;67.00;6.70;;;;;;;;;;5072571;28;20510;-68
2023/04/15 08:34:21;;;;;;;62.90;6.00;;;;;;;;;;5072682;28;20459;-67
2023/04/15 08:36:48;;;;;;;62.53;6.77;;;;;;;;;;5072569;28;20550;-67
2023/04/15 08:39:15;;;;;;;61.57;6.00;;;;;;;;;;5072152;28;20491;-67
2023/04/15 08:41:46;;;;;;;65.10;6.10;;;;;;;;;;5072462;28;20448;-67
2023/04/15 08:44:14;;;;;;;60.93;5.80;;;;;;;;;;5072347;28;20832;-68
2023/04/15 08:46:43;;;;;;;62.67;5.90;;;;;;;;;;5072693;28;20648;-68
2023/04/15 08:49:12;;;;;;;62.80;6.30;;;;;;;;;;5072210;28;20525;-67
2023/04/15 08:51:39;;;;;;;61.80;5.90;;;;;;;;;;5072377;28;20451;-68
2023/04/15 08:54:07;;;;;;;62.87;6.03;;;;;;;;;;5072221;28;20451;-67
2023/04/15 08:56:35;;;;;;;63.07;6.47;;;;;;;;;;5072043;28;20461;-67
2023/04/15 08:59:04;;;;;;;63.00;6.43;;;;;;;;;;5071854;28;20487;-67
2023/04/15 09:01:32;;;;;;;66.00;6.17;;;;;;;;;;5072357;28;20948;-67
2023/04/15 09:04:00;;;;;;;63.77;6.27;;;;;;;;;;5072296;28;20444;-67
2023/04/15 09:06:28;;;;;;;59.97;5.73;;;;;;;;;;5072246;28;20470;-67
2023/04/15 09:08:56;;;;;;;62.57;6.57;;;;;;;;;;5071845;28;20903;-67
2023/04/15 09:11:23;;;;;;;63.93;6.17;;;;;;;;;;5071938;28;20533;-67
2023/04/15 09:13:51;;;;;;;62.00;5.57;;;;;;;;;;5072108;28;21026;-67
2023/04/15 09:16:18;;;;;;;61.57;5.93;;;;;;;;;;5072175;28;20521;-67
2023/04/15 09:18:45;;;;;;;64.17;5.60;;;;;;;;;;5071507;28;20550;-67
2023/04/15 09:21:13;;;;;;;63.90;6.07;;;;;;;;;;5072014;28;20501;-66
2023/04/15 09:23:54;;;;;;;63.60;6.30;;;;;;;;;;5071818;28;20968;-67
2023/04/15 09:26:30;;;;;;;61.67;5.90;;;;;;;;;;5071838;28;20454;-67
2023/04/15 09:29:02;;;;;;;64.03;5.63;;;;;;;;;;5071420;28;20467;-67
2023/04/15 09:31:30;;;;;;;59.37;4.60;;;;;;;;;;5071483;28;20448;-67
2023/04/15 09:33:57;;;;;;;61.83;5.73;;;;;;;;;;5071706;28;20447;-67
2023/04/15 09:36:28;;;;;;;61.23;6.40;;;;;;;;;;5071684;28;20451;-67
2023/04/15 09:38:57;;;;;;;60.20;5.43;;;;;;;;;;5071343;28;20475;-67
2023/04/15 09:41:24;;;;;;;62.40;5.80;;;;;;;;;;5071697;28;20488;-67
2023/04/15 09:43:51;;;;;;;60.60;5.57;;;;;;;;;;5071784;28;20509;-67
2023/04/15 09:46:19;;;;;;;60.63;5.57;;;;;;;;;;5071765;28;20941;-68
2023/04/15 09:48:46;;;;;;;59.53;5.10;;;;;;;;;;5071079;28;20524;-68
2023/04/15 09:51:14;;;;;;;61.47;5.53;;;;;;;;;;5071806;28;20825;-67
2023/04/15 09:53:41;;;;;;;62.67;6.53;;;;;;;;;;5071688;28;20455;-68
2023/04/15 09:56:10;;;;;;;62.80;5.83;;;;;;;;;;5071392;28;20459;-67
2023/04/15 09:58:37;;;;;;;65.90;6.37;;;;;;;;;;5071193;28;20467;-67
2023/04/15 10:01:06;;;;;;;60.10;6.20;;;;;;;;;;5071336;28;20597;-67
2023/04/15 10:03:34;;;;;;;60.87;5.73;;;;;;;;;;5071689;28;20458;-68
2023/04/15 10:06:02;;;;;;;61.80;6.50;;;;;;;;;;5071595;28;20451;-68
2023/04/15 10:08:31;;;;;;;61.57;5.70;;;;;;;;;;5071422;28;20784;-68
2023/04/15 10:10:59;;;;;;;62.70;5.90;;;;;;;;;;5071375;28;20457;-68
2023/04/15 10:13:31;;;;;;;62.67;6.20;;;;;;;;;;5071363;28;20542;-68
2023/04/15 10:15:59;;;;;;;66.13;5.77;;;;;;;;;;5071289;28;20538;-68
2023/04/15 10:18:27;;;;;;;61.57;6.17;;;;;;;;;;5071379;28;20490;-68
2023/04/15 10:20:55;;;;;;;63.10;5.80;;;;;;;;;;5071496;28;20850;-68
2023/04/15 10:23:23;;;;;;;62.90;5.27;;;;;;;;;;5071295;28;20467;-68
2023/04/15 10:25:52;;;;;;;60.30;5.20;;;;;;;;;;5071405;28;20451;-68
2023/04/15 10:28:21;;;;;;;61.47;5.00;;;;;;;;;;5070934;28;21003;-68
2023/04/15 10:30:50;;;;;;;65.47;5.90;;;;;;;;;;5071147;28;20534;-68
2023/04/15 10:33:19;;;;;;;60.80;5.50;;;;;;;;;;5071257;28;20452;-67
2023/04/15 10:35:47;;;;;;;62.20;5.20;;;;;;;;;;5071194;28;20459;-68
2023/04/15 10:38:34;;;;;;;59.80;5.20;;;;;;;;;;5070965;28;20511;-68
2023/04/15 10:41:13;;;;;;;61.03;4.67;;;;;;;;;;5071053;28;20479;-68
2023/04/15 10:43:40;;;;;;;59.93;4.13;;;;;;;;;;5074514;28;20610;-67
2023/04/15 10:46:09;;;;;;;60.57;4.93;;;;;;;;;;5074814;28;20542;-67
2023/04/15 10:48:36;;;;;;;60.57;4.80;;;;;;;;;;5074299;28;20467;-67
2023/04/15 10:51:03;;;;;;;59.67;4.80;;;;;;;;;;5074573;28;20835;-67
2023/04/15 10:53:31;;;;;;;60.77;5.40;;;;;;;;;;5074774;28;20459;-68
2023/04/15 10:55:58;;;;;;;59.50;4.83;;;;;;;;;;5074760;28;20451;-67
2023/04/15 10:58:26;;;;;;;59.40;4.67;;;;;;;;;;5074472;28;20467;-67
2023/04/15 11:00:54;;;;;;;64.50;5.50;;;;;;;;;;5074293;28;20547;-68
2023/04/15 11:03:37;;;;;;;60.60;4.40;;;;;;;;;;5074409;28;20447;-67
2023/04/15 11:06:05;;;;;;;59.50;4.40;;;;;;;;;;5074291;28;20944;-67
2023/04/15 11:08:50;;;;;;;60.30;5.20;;;;;;;;;;5074101;28;20925;-68
2023/04/15 11:11:17;;;;;;;61.10;4.80;;;;;;;;;;5074194;28;20455;-67
2023/04/15 11:13:49;;;;;;;61.10;5.70;;;;;;;;;;5074171;28;20443;-67
2023/04/15 11:16:16;;;;;;;60.80;5.00;;;;;;;;;;5074048;28;20443;-67
2023/04/15 11:18:53;;;;;;;59.77;4.60;;;;;;;;;;5073854;28;21168;-65
2023/04/15 11:21:24;;;;;;;62.37;4.90;;;;;;;;;;5074110;28;20489;-68
2023/04/15 11:23:52;;;;;;;60.57;5.07;;;;;;;;;;5074060;28;20455;-68
2023/04/15 11:26:19;;;;;;;62.13;5.70;;;;;;;;;;5073892;28;20443;-67
2023/04/15 11:28:46;;;;;;;60.10;5.37;;;;;;;;;;5073493;28;20478;-68
2023/04/15 11:31:14;;;;;;;61.07;5.17;;;;;;;;;;5073717;28;20997;-67
2023/04/15 11:33:55;;;;;;;62.40;6.40;;;;;;;;;;5073999;28;20443;-67
2023/04/15 11:36:25;;;;;;;65.60;6.20;;;;;;;;;;5073785;28;20959;-68
2023/04/15 11:38:52;;;;;;;62.73;6.43;;;;;;;;;;5073160;28;20472;-68
2023/04/15 11:41:21;;;;;;;61.70;5.10;;;;;;;;;;5073429;28;20491;-67
2023/04/15 11:43:48;;;;;;;60.00;5.50;;;;;;;;;;5073572;28;20459;-68
2023/04/15 11:46:15;;;;;;;61.50;5.60;;;;;;;;;;5053822;28;20441;-67
2023/04/15 11:48:43;;;;;;;60.80;6.40;;;;;;;;;;5053102;28;20475;-69
2023/04/15 11:51:13;;;;;;;62.33;6.23;;;;;;;;;;5053591;28;20449;-68
2023/04/15 11:53:40;;;;;;;61.00;6.07;;;;;;;;;;5052958;28;20933;-68
2023/04/15 11:56:09;;;;;;;61.97;5.70;;;;;;;;;;5053443;28;20456;-68
2023/04/15 11:58:38;;;;;;;60.23;5.20;;;;;;;;;;5053050;28;20480;-68
2023/04/15 12:01:06;;;;;;;60.87;5.10;;;;;;;;;;5053274;28;20479;-68
2023/04/15 12:03:37;;;;;;;60.60;4.97;;;;;;;;;;5053153;28;20463;-68
2023/04/15 12:06:22;;;;;;;60.40;4.57;;;;;;;;;;5053150;28;20484;-67
2023/04/15 12:09:07;;;;;;;60.00;4.13;;;;;;;;;;5052877;28;20471;-67
2023/04/15 12:11:39;;;;;;;60.97;4.93;;;;;;;;;;5043084;28;20456;-68
2023/04/15 12:14:08;;;;;;;59.27;4.97;;;;;;;;;;5053035;28;20971;-67
2023/04/15 12:16:35;;;;;;;62.53;4.47;;;;;;;;;;5052807;28;20451;-68
2023/04/15 12:19:05;;;;;;;60.53;4.90;;;;;;;;;;5052684;28;20468;-69
2023/04/15 12:21:34;;;;;;;59.27;4.50;;;;;;;;;;5052949;28;20492;-68
2023/04/15 12:24:02;;;;;;;60.73;4.97;;;;;;;;;;5052805;28;20467;-67
2023/04/15 12:26:31;;;;;;;66.70;8.93;;;;;;;;;;5052827;28;20452;-68
2023/04/15 12:29:02;;;;;;;61.77;6.63;;;;;;;;;;5052283;28;20468;-67
2023/04/15 12:31:30;;;;;;;64.27;6.90;;;;;;;;;;5052707;28;20448;-68
2023/04/15 12:33:57;;;;;;;62.57;6.80;;;;;;;;;;5052604;28;20535;-67
2023/04/15 12:36:24;;;;;;;67.77;8.60;;;;;;;;;;5052571;28;20944;-67
2023/04/15 12:38:51;;;;;;;62.97;6.30;;;;;;;;;;5052245;28;20464;-68
2023/04/15 12:41:19;;;;;;;65.47;6.10;;;;;;;;;;5052467;28;20479;-67
2023/04/15 12:43:46;;;;;;;61.13;5.30;;;;;;;;;;5052275;28;20805;-67
2023/04/15 12:46:15;;;;;;;61.07;5.70;;;;;;;;;;5052306;28;20452;-67
2023/04/15 12:48:42;;;;;;;60.60;5.10;;;;;;;;;;5052138;28;20474;-67
2023/04/15 12:51:09;;;;;;;59.77;4.33;;;;;;;;;;5052465;28;20861;-67
2023/04/15 12:53:37;;;;;;;62.13;4.90;;;;;;;;;;5052199;28;20453;-67
2023/04/15 12:56:05;;;;;;;59.00;3.80;;;;;;;;;;5052290;28;20793;-69
2023/04/15 12:58:32;;;;;;;59.83;4.10;;;;;;;;;;5051992;28;20476;-70
2023/04/15 13:00:59;;;;;;;60.40;4.83;;;;;;;;;;5052208;28;20488;-67
2023/04/15 13:03:28;;;;;;;59.57;4.53;;;;;;;;;;5052239;28;20802;-67
2023/04/15 13:05:56;;;;;;;59.30;4.47;;;;;;;;;;5051525;28;20833;-67
2023/04/15 13:08:23;;;;;;;61.00;4.43;;;;;;;;;;5051797;28;20468;-68
2023/04/15 13:10:50;;;;;;;59.73;4.57;;;;;;;;;;5051575;28;20452;-67
2023/04/15 13:13:18;;;;;;;62.80;5.17;;;;;;;;;;5052105;28;20456;-67
2023/04/15 13:15:45;;;;;;;59.37;4.10;;;;;;;;;;5052158;28;20452;-68
2023/04/15 13:18:12;;;;;;;62.97;3.90;;;;;;;;;;5051778;28;21000;-69
2023/04/15 13:20:41;;;;;;;60.20;4.20;;;;;;;;;;5051826;28;20516;-68
2023/04/15 13:23:08;;;;;;;59.90;3.93;;;;;;;;;;5051741;28;20464;-68
2023/04/15 13:25:35;;;;;;;60.23;4.23;;;;;;;;;;5051861;28;20949;-69
2023/04/15 13:28:02;;;;;;;58.43;3.80;;;;;;;;;;5051817;28;20448;-68
2023/04/15 13:30:30;;;;;;;61.60;3.57;;;;;;;;;;5051644;28;20570;-68
2023/04/15 13:32:57;;;;;;;58.97;4.37;;;;;;;;;;5051800;28;20452;-68
2023/04/15 13:35:24;;;;;;;58.47;3.70;;;;;;;;;;5051779;28;20452;-68
2023/04/15 13:37:55;;;;;;;59.40;3.57;;;;;;;;;;5051480;28;20459;-68
2023/04/15 13:40:22;;;;;;;58.33;3.37;;;;;;;;;;5051637;28;20459;-68
2023/04/15 13:42:49;;;;;;;60.40;4.07;;;;;;;;;;5051914;28;20814;-69
2023/04/15 13:45:16;;;;;;;58.87;3.80;;;;;;;;;;5051707;28;20548;-67
2023/04/15 13:47:43;;;;;;;58.77;3.43;;;;;;;;;;5051897;28;20444;-69
2023/04/15 13:50:11;;;;;;;61.73;3.10;;;;;;;;;;5051070;28;20555;-68
2023/04/15 13:52:38;;;;;;;59.40;3.17;;;;;;;;;;5051497;28;20452;-68
2023/04/15 13:55:07;;;;;;;58.97;3.20;;;;;;;;;;5051831;28;20479;-68
2023/04/15 13:57:35;;;;;;;57.97;3.00;;;;;;;;;;5051453;28;20456;-67
2023/04/15 14:00:03;;;;;;;57.87;2.90;;;;;;;;;;5051132;28;20479;-68
2023/04/15 14:02:30;;;;;;;58.60;3.10;;;;;;;;;;5051435;28;20480;-69
2023/04/15 14:04:57;;;;;;;58.20;2.80;;;;;;;;;;5051376;28;20455;-68
2023/04/15 14:07:24;;;;;;;58.17;3.33;;;;;;;;;;5056227;28;20478;-68
2023/04/15 14:09:52;;;;;;;58.90;2.73;;;;;;;;;;5051093;28;20908;-70
2023/04/15 14:12:20;;;;;;;58.73;3.10;;;;;;;;;;5050444;28;20535;-68
2023/04/15 14:14:47;;;;;;;59.53;3.30;;;;;;;;;;5051560;28;20448;-68
2023/04/15 14:17:14;;;;;;;57.70;3.00;;;;;;;;;;5054100;28;20636;-68
2023/04/15 14:19:42;;;;;;;58.60;3.17;;;;;;;;;;5055008;28;20468;-68
2023/04/15 14:22:09;;;;;;;58.30;3.03;;;;;;;;;;5055103;28;20484;-68
2023/04/15 14:24:36;;;;;;;58.87;3.47;;;;;;;;;;5055186;28;20567;-68
2023/04/15 14:27:03;;;;;;;57.90;2.87;;;;;;;;;;5055111;28;20458;-68
2023/04/15 14:29:32;;;;;;;57.33;2.90;;;;;;;;;;5054727;28;20841;-68
2023/04/15 14:31:59;;;;;;;57.57;2.97;;;;;;;;;;5054982;28;20455;-68
2023/04/15 14:34:26;;;;;;;60.70;3.70;;;;;;;;;;5055133;28;20510;-69
2023/04/15 14:36:53;;;;;;;59.30;3.50;;;;;;;;;;5054811;28;20452;-68
2023/04/15 14:39:21;;;;;;;57.80;2.93;;;;;;;;;;5054656;28;20474;-68
2023/04/15 14:41:48;;;;;;;57.70;3.00;;;;;;;;;;5054715;28;20484;-68
2023/04/15 14:44:15;;;;;;;58.03;3.10;;;;;;;;;;5054940;28;20944;-67
2023/04/15 14:46:43;;;;;;;59.40;3.30;;;;;;;;;;5054641;28;20454;-68
2023/04/15 14:49:10;;;;;;;58.30;3.50;;;;;;;;;;5054465;28;20825;-69